sensor_id;sensor_type;location;lat;lon;timestamp;P1;durP1;ratioP1;P2;durP2;ratioP2
10945;SDS011;5525;42.648;23.368;2023-04-06T00:02:24;6.68;;;4.93;;
10945;SDS011;5525;42.648;23.368;2023-04-06T00:04:52;7.65;;;5.80;;
10945;SDS011;5525;42.648;23.368;2023-04-06T00:07:19;6.70;;;5.72;;
10945;SDS011;5525;42.648;23.368;2023-04-06T00:09:45;9.15;;;6.10;;
10945;SDS011;5525;42.648;23.368;2023-04-06T00:12:12;5.88;;;5.18;;
10945;SDS011;5525;42.648;23.368;2023-04-06T00:14:39;7.63;;;5.93;;
10945;SDS011;5525;42.648;23.368;2023-04-06T00:17:06;8.40;;;6.28;;
10945;SDS011;5525;42.648;23.368;2023-04-06T00:19:33;10.10;;;5.90;;
10945;SDS011;5525;42.648;23.368;2023-04-06T00:22:02;7.65;;;5.80;;
10945;SDS011;5525;42.648;23.368;2023-04-06T00:24:28;9.55;;;6.90;;
10945;SDS011;5525;42.648;23.368;2023-04-06T00:26:55;10.38;;;7.15;;
10945;SDS011;5525;42.648;23.368;2023-04-06T00:29:22;7.57;;;6.10;;
10945;SDS011;5525;42.648;23.368;2023-04-06T00:31:49;9.73;;;6.60;;
10945;SDS011;5525;42.648;23.368;2023-04-06T00:34:16;9.60;;;6.25;;
10945;SDS011;5525;42.648;23.368;2023-04-06T00:36:43;6.40;;;5.13;;
10945;SDS011;5525;42.648;23.368;2023-04-06T00:39:11;7.47;;;5.30;;
10945;SDS011;5525;42.648;23.368;2023-04-06T00:41:41;8.38;;;5.40;;
10945;SDS011;5525;42.648;23.368;2023-04-06T00:44:15;6.85;;;5.53;;
10945;SDS011;5525;42.648;23.368;2023-04-06T00:46:42;7.85;;;5.72;;
10945;SDS011;5525;42.648;23.368;2023-04-06T00:49:09;10.75;;;6.88;;
10945;SDS011;5525;42.648;23.368;2023-04-06T00:51:36;6.63;;;4.70;;
10945;SDS011;5525;42.648;23.368;2023-04-06T00:54:02;8.15;;;6.40;;
10945;SDS011;5525;42.648;23.368;2023-04-06T00:56:31;8.95;;;6.22;;
10945;SDS011;5525;42.648;23.368;2023-04-06T00:58:58;8.40;;;6.05;;
10945;SDS011;5525;42.648;23.368;2023-04-06T01:01:25;7.40;;;6.15;;
10945;SDS011;5525;42.648;23.368;2023-04-06T01:03:53;7.47;;;6.30;;
10945;SDS011;5525;42.648;23.368;2023-04-06T01:06:20;7.68;;;6.03;;
10945;SDS011;5525;42.648;23.368;2023-04-06T01:08:47;9.23;;;6.50;;
10945;SDS011;5525;42.648;23.368;2023-04-06T01:11:14;7.85;;;6.32;;
10945;SDS011;5525;42.648;23.368;2023-04-06T01:13:42;6.75;;;4.70;;
10945;SDS011;5525;42.648;23.368;2023-04-06T01:16:09;7.25;;;5.70;;
10945;SDS011;5525;42.648;23.368;2023-04-06T01:18:37;7.53;;;4.82;;
10945;SDS011;5525;42.648;23.368;2023-04-06T01:21:04;7.57;;;5.70;;
10945;SDS011;5525;42.648;23.368;2023-04-06T01:23:35;8.23;;;5.30;;
10945;SDS011;5525;42.648;23.368;2023-04-06T01:26:01;8.43;;;5.10;;
10945;SDS011;5525;42.648;23.368;2023-04-06T01:28:28;7.03;;;4.38;;
10945;SDS011;5525;42.648;23.368;2023-04-06T01:30:55;8.82;;;6.10;;
10945;SDS011;5525;42.648;23.368;2023-04-06T01:33:22;6.50;;;4.90;;
10945;SDS011;5525;42.648;23.368;2023-04-06T01:35:49;6.90;;;5.22;;
10945;SDS011;5525;42.648;23.368;2023-04-06T01:38:15;6.13;;;4.70;;
10945;SDS011;5525;42.648;23.368;2023-04-06T01:40:44;8.00;;;4.90;;
10945;SDS011;5525;42.648;23.368;2023-04-06T01:43:11;7.20;;;4.82;;
10945;SDS011;5525;42.648;23.368;2023-04-06T01:45:38;7.07;;;6.00;;
10945;SDS011;5525;42.648;23.368;2023-04-06T01:48:05;8.38;;;5.60;;
10945;SDS011;5525;42.648;23.368;2023-04-06T01:50:33;9.35;;;6.68;;
10945;SDS011;5525;42.648;23.368;2023-04-06T01:53:00;7.68;;;5.60;;
10945;SDS011;5525;42.648;23.368;2023-04-06T01:55:27;8.07;;;6.07;;
10945;SDS011;5525;42.648;23.368;2023-04-06T01:57:55;8.27;;;6.35;;
10945;SDS011;5525;42.648;23.368;2023-04-06T02:00:22;8.90;;;5.85;;
10945;SDS011;5525;42.648;23.368;2023-04-06T02:02:49;6.40;;;5.22;;
10945;SDS011;5525;42.648;23.368;2023-04-06T02:05:16;7.60;;;5.75;;
10945;SDS011;5525;42.648;23.368;2023-04-06T02:07:43;7.65;;;5.55;;
10945;SDS011;5525;42.648;23.368;2023-04-06T02:10:11;8.07;;;6.25;;
10945;SDS011;5525;42.648;23.368;2023-04-06T02:12:38;8.57;;;4.35;;
10945;SDS011;5525;42.648;23.368;2023-04-06T02:15:07;7.97;;;5.13;;
10945;SDS011;5525;42.648;23.368;2023-04-06T02:17:35;7.90;;;5.78;;
10945;SDS011;5525;42.648;23.368;2023-04-06T02:20:01;7.13;;;5.38;;
10945;SDS011;5525;42.648;23.368;2023-04-06T02:22:29;6.32;;;5.47;;
10945;SDS011;5525;42.648;23.368;2023-04-06T02:24:55;7.80;;;5.60;;
10945;SDS011;5525;42.648;23.368;2023-04-06T02:27:22;7.38;;;5.78;;
10945;SDS011;5525;42.648;23.368;2023-04-06T02:29:49;7.38;;;5.53;;
10945;SDS011;5525;42.648;23.368;2023-04-06T02:32:17;7.40;;;5.45;;
10945;SDS011;5525;42.648;23.368;2023-04-06T02:34:44;7.47;;;5.93;;
10945;SDS011;5525;42.648;23.368;2023-04-06T02:37:11;9.93;;;5.85;;
10945;SDS011;5525;42.648;23.368;2023-04-06T02:39:38;6.55;;;4.95;;
10945;SDS011;5525;42.648;23.368;2023-04-06T02:42:05;8.02;;;6.38;;
10945;SDS011;5525;42.648;23.368;2023-04-06T02:44:31;8.27;;;5.90;;
10945;SDS011;5525;42.648;23.368;2023-04-06T02:46:58;6.90;;;5.97;;
10945;SDS011;5525;42.648;23.368;2023-04-06T02:49:26;7.82;;;5.40;;
10945;SDS011;5525;42.648;23.368;2023-04-06T02:51:53;8.70;;;6.55;;
10945;SDS011;5525;42.648;23.368;2023-04-06T02:54:20;9.50;;;5.43;;
10945;SDS011;5525;42.648;23.368;2023-04-06T02:56:47;9.40;;;5.93;;
10945;SDS011;5525;42.648;23.368;2023-04-06T02:59:14;7.53;;;6.05;;
10945;SDS011;5525;42.648;23.368;2023-04-06T03:01:40;9.80;;;6.45;;
10945;SDS011;5525;42.648;23.368;2023-04-06T03:04:07;7.72;;;6.05;;
10945;SDS011;5525;42.648;23.368;2023-04-06T03:06:35;7.40;;;5.55;;
10945;SDS011;5525;42.648;23.368;2023-04-06T03:09:02;7.75;;;5.65;;
10945;SDS011;5525;42.648;23.368;2023-04-06T03:11:29;7.50;;;5.50;;
10945;SDS011;5525;42.648;23.368;2023-04-06T03:13:56;8.05;;;5.88;;
10945;SDS011;5525;42.648;23.368;2023-04-06T03:16:24;7.50;;;4.93;;
10945;SDS011;5525;42.648;23.368;2023-04-06T03:18:51;7.97;;;5.93;;
10945;SDS011;5525;42.648;23.368;2023-04-06T03:21:17;7.72;;;5.90;;
10945;SDS011;5525;42.648;23.368;2023-04-06T03:23:46;9.05;;;5.75;;
10945;SDS011;5525;42.648;23.368;2023-04-06T03:26:15;9.85;;;6.57;;
10945;SDS011;5525;42.648;23.368;2023-04-06T03:28:42;7.07;;;5.32;;
10945;SDS011;5525;42.648;23.368;2023-04-06T03:31:09;8.55;;;6.07;;
10945;SDS011;5525;42.648;23.368;2023-04-06T03:33:36;9.38;;;6.45;;
10945;SDS011;5525;42.648;23.368;2023-04-06T03:36:03;7.85;;;5.35;;
10945;SDS011;5525;42.648;23.368;2023-04-06T03:38:30;9.98;;;6.60;;
10945;SDS011;5525;42.648;23.368;2023-04-06T03:40:58;7.05;;;5.32;;
10945;SDS011;5525;42.648;23.368;2023-04-06T03:43:25;8.30;;;6.32;;
10945;SDS011;5525;42.648;23.368;2023-04-06T03:45:52;10.20;;;6.25;;
10945;SDS011;5525;42.648;23.368;2023-04-06T03:48:18;7.30;;;4.95;;
10945;SDS011;5525;42.648;23.368;2023-04-06T03:50:45;7.18;;;5.85;;
10945;SDS011;5525;42.648;23.368;2023-04-06T03:53:12;7.03;;;5.32;;
10945;SDS011;5525;42.648;23.368;2023-04-06T03:55:39;8.38;;;5.80;;
10945;SDS011;5525;42.648;23.368;2023-04-06T03:58:07;10.30;;;6.00;;
10945;SDS011;5525;42.648;23.368;2023-04-06T04:00:34;7.10;;;5.25;;
10945;SDS011;5525;42.648;23.368;2023-04-06T04:03:01;8.75;;;5.10;;
10945;SDS011;5525;42.648;23.368;2023-04-06T04:05:28;8.25;;;4.95;;
10945;SDS011;5525;42.648;23.368;2023-04-06T04:07:54;4.97;;;4.20;;
10945;SDS011;5525;42.648;23.368;2023-04-06T04:10:21;7.03;;;5.32;;
10945;SDS011;5525;42.648;23.368;2023-04-06T04:12:48;9.32;;;5.85;;
10945;SDS011;5525;42.648;23.368;2023-04-06T04:15:16;8.02;;;5.05;;
10945;SDS011;5525;42.648;23.368;2023-04-06T04:17:43;6.53;;;4.78;;
10945;SDS011;5525;42.648;23.368;2023-04-06T04:20:12;5.90;;;4.43;;
10945;SDS011;5525;42.648;23.368;2023-04-06T04:22:38;7.50;;;5.05;;
10945;SDS011;5525;42.648;23.368;2023-04-06T04:25:05;11.20;;;5.32;;
10945;SDS011;5525;42.648;23.368;2023-04-06T04:27:32;9.02;;;5.40;;
10945;SDS011;5525;42.648;23.368;2023-04-06T04:29:59;6.05;;;4.57;;
10945;SDS011;5525;42.648;23.368;2023-04-06T04:32:27;7.70;;;5.65;;
10945;SDS011;5525;42.648;23.368;2023-04-06T04:34:54;8.60;;;6.40;;
10945;SDS011;5525;42.648;23.368;2023-04-06T04:37:21;6.72;;;5.40;;
10945;SDS011;5525;42.648;23.368;2023-04-06T04:39:48;8.40;;;5.43;;
10945;SDS011;5525;42.648;23.368;2023-04-06T04:42:15;7.40;;;5.60;;
10945;SDS011;5525;42.648;23.368;2023-04-06T04:44:42;9.40;;;5.65;;
10945;SDS011;5525;42.648;23.368;2023-04-06T04:47:08;8.43;;;5.55;;
10945;SDS011;5525;42.648;23.368;2023-04-06T04:49:36;8.57;;;5.85;;
10945;SDS011;5525;42.648;23.368;2023-04-06T04:52:03;9.18;;;5.75;;
10945;SDS011;5525;42.648;23.368;2023-04-06T04:54:30;6.90;;;5.18;;
10945;SDS011;5525;42.648;23.368;2023-04-06T04:56:57;9.95;;;6.18;;
10945;SDS011;5525;42.648;23.368;2023-04-06T04:59:24;5.28;;;4.50;;
10945;SDS011;5525;42.648;23.368;2023-04-06T05:01:51;6.85;;;4.80;;
10945;SDS011;5525;42.648;23.368;2023-04-06T05:04:18;11.65;;;6.22;;
10945;SDS011;5525;42.648;23.368;2023-04-06T05:06:47;7.05;;;5.70;;
10945;SDS011;5525;42.648;23.368;2023-04-06T05:09:13;8.52;;;5.70;;
10945;SDS011;5525;42.648;23.368;2023-04-06T05:11:40;8.18;;;5.72;;
10945;SDS011;5525;42.648;23.368;2023-04-06T05:14:07;11.10;;;6.57;;
10945;SDS011;5525;42.648;23.368;2023-04-06T05:16:34;8.48;;;6.18;;
10945;SDS011;5525;42.648;23.368;2023-04-06T05:19:01;10.27;;;6.72;;
10945;SDS011;5525;42.648;23.368;2023-04-06T05:21:28;9.00;;;6.32;;
10945;SDS011;5525;42.648;23.368;2023-04-06T05:23:56;10.90;;;7.47;;
10945;SDS011;5525;42.648;23.368;2023-04-06T05:26:23;8.98;;;6.35;;
10945;SDS011;5525;42.648;23.368;2023-04-06T05:28:50;13.23;;;6.95;;
10945;SDS011;5525;42.648;23.368;2023-04-06T05:31:17;14.30;;;6.05;;
10945;SDS011;5525;42.648;23.368;2023-04-06T05:33:44;13.98;;;7.20;;
10945;SDS011;5525;42.648;23.368;2023-04-06T05:36:11;10.25;;;6.97;;
10945;SDS011;5525;42.648;23.368;2023-04-06T05:38:38;10.40;;;7.15;;
10945;SDS011;5525;42.648;23.368;2023-04-06T05:41:09;10.95;;;6.22;;
10945;SDS011;5525;42.648;23.368;2023-04-06T05:43:36;9.70;;;6.68;;
10945;SDS011;5525;42.648;23.368;2023-04-06T05:46:03;11.05;;;7.70;;
10945;SDS011;5525;42.648;23.368;2023-04-06T05:48:30;11.77;;;8.05;;
10945;SDS011;5525;42.648;23.368;2023-04-06T05:50:57;13.18;;;8.00;;
10945;SDS011;5525;42.648;23.368;2023-04-06T05:53:25;12.38;;;7.57;;
10945;SDS011;5525;42.648;23.368;2023-04-06T05:55:51;15.23;;;8.95;;
10945;SDS011;5525;42.648;23.368;2023-04-06T05:58:19;12.23;;;8.15;;
10945;SDS011;5525;42.648;23.368;2023-04-06T06:00:46;11.85;;;8.20;;
10945;SDS011;5525;42.648;23.368;2023-04-06T06:03:13;10.77;;;8.32;;
10945;SDS011;5525;42.648;23.368;2023-04-06T06:05:40;12.77;;;8.23;;
10945;SDS011;5525;42.648;23.368;2023-04-06T06:08:07;13.98;;;8.25;;
10945;SDS011;5525;42.648;23.368;2023-04-06T06:10:34;14.38;;;8.77;;
10945;SDS011;5525;42.648;23.368;2023-04-06T06:13:00;9.98;;;7.75;;
10945;SDS011;5525;42.648;23.368;2023-04-06T06:15:29;11.15;;;8.25;;
10945;SDS011;5525;42.648;23.368;2023-04-06T06:17:55;12.35;;;7.82;;
10945;SDS011;5525;42.648;23.368;2023-04-06T06:20:22;12.13;;;8.93;;
10945;SDS011;5525;42.648;23.368;2023-04-06T06:22:49;13.20;;;9.52;;
10945;SDS011;5525;42.648;23.368;2023-04-06T06:25:16;10.57;;;7.75;;
10945;SDS011;5525;42.648;23.368;2023-04-06T06:27:42;14.48;;;9.02;;
10945;SDS011;5525;42.648;23.368;2023-04-06T06:30:09;13.50;;;9.30;;
10945;SDS011;5525;42.648;23.368;2023-04-06T06:32:38;14.98;;;9.38;;
10945;SDS011;5525;42.648;23.368;2023-04-06T06:35:05;15.98;;;9.80;;
10945;SDS011;5525;42.648;23.368;2023-04-06T06:37:32;15.85;;;10.52;;
10945;SDS011;5525;42.648;23.368;2023-04-06T06:39:59;13.57;;;9.10;;
10945;SDS011;5525;42.648;23.368;2023-04-06T06:42:26;14.27;;;10.02;;
10945;SDS011;5525;42.648;23.368;2023-04-06T06:44:53;12.07;;;8.52;;
10945;SDS011;5525;42.648;23.368;2023-04-06T06:47:20;10.27;;;8.85;;
10945;SDS011;5525;42.648;23.368;2023-04-06T06:49:48;10.73;;;8.07;;
10945;SDS011;5525;42.648;23.368;2023-04-06T06:52:15;10.32;;;7.82;;
10945;SDS011;5525;42.648;23.368;2023-04-06T06:54:42;11.07;;;8.75;;
10945;SDS011;5525;42.648;23.368;2023-04-06T06:57:09;14.18;;;10.20;;
10945;SDS011;5525;42.648;23.368;2023-04-06T06:59:36;11.73;;;9.10;;
10945;SDS011;5525;42.648;23.368;2023-04-06T07:02:03;9.23;;;7.80;;
10945;SDS011;5525;42.648;23.368;2023-04-06T07:04:29;13.02;;;9.68;;
10945;SDS011;5525;42.648;23.368;2023-04-06T07:06:58;11.25;;;8.15;;
10945;SDS011;5525;42.648;23.368;2023-04-06T07:09:25;12.75;;;9.15;;
10945;SDS011;5525;42.648;23.368;2023-04-06T07:11:52;9.20;;;8.00;;
10945;SDS011;5525;42.648;23.368;2023-04-06T07:14:18;13.27;;;8.75;;
10945;SDS011;5525;42.648;23.368;2023-04-06T07:16:45;9.10;;;8.13;;
10945;SDS011;5525;42.648;23.368;2023-04-06T07:19:14;12.73;;;8.88;;
10945;SDS011;5525;42.648;23.368;2023-04-06T07:21:40;10.25;;;8.68;;
10945;SDS011;5525;42.648;23.368;2023-04-06T07:24:09;11.23;;;7.95;;
10945;SDS011;5525;42.648;23.368;2023-04-06T07:26:35;11.85;;;8.73;;
10945;SDS011;5525;42.648;23.368;2023-04-06T07:29:02;9.57;;;8.13;;
10945;SDS011;5525;42.648;23.368;2023-04-06T07:31:29;8.50;;;7.47;;
10945;SDS011;5525;42.648;23.368;2023-04-06T07:33:56;8.50;;;7.10;;
10945;SDS011;5525;42.648;23.368;2023-04-06T07:36:23;8.93;;;7.75;;
10945;SDS011;5525;42.648;23.368;2023-04-06T07:38:49;11.43;;;8.20;;
10945;SDS011;5525;42.648;23.368;2023-04-06T07:41:18;11.18;;;8.50;;
10945;SDS011;5525;42.648;23.368;2023-04-06T07:43:44;9.75;;;8.10;;
10945;SDS011;5525;42.648;23.368;2023-04-06T07:46:11;7.70;;;6.90;;
10945;SDS011;5525;42.648;23.368;2023-04-06T07:48:38;9.93;;;7.75;;
10945;SDS011;5525;42.648;23.368;2023-04-06T07:51:06;8.75;;;7.90;;
10945;SDS011;5525;42.648;23.368;2023-04-06T07:53:35;9.23;;;8.32;;
10945;SDS011;5525;42.648;23.368;2023-04-06T07:56:02;11.43;;;8.82;;
10945;SDS011;5525;42.648;23.368;2023-04-06T07:58:30;9.63;;;8.63;;
10945;SDS011;5525;42.648;23.368;2023-04-06T08:00:57;8.38;;;7.47;;
10945;SDS011;5525;42.648;23.368;2023-04-06T08:03:24;11.05;;;8.38;;
10945;SDS011;5525;42.648;23.368;2023-04-06T08:05:51;10.38;;;8.82;;
10945;SDS011;5525;42.648;23.368;2023-04-06T08:08:18;9.40;;;8.40;;
10945;SDS011;5525;42.648;23.368;2023-04-06T08:10:46;9.57;;;8.57;;
10945;SDS011;5525;42.648;23.368;2023-04-06T08:13:13;13.88;;;9.75;;
10945;SDS011;5525;42.648;23.368;2023-04-06T08:15:41;10.73;;;9.48;;
10945;SDS011;5525;42.648;23.368;2023-04-06T08:18:08;9.02;;;8.13;;
10945;SDS011;5525;42.648;23.368;2023-04-06T08:20:35;9.48;;;7.40;;
10945;SDS011;5525;42.648;23.368;2023-04-06T08:23:02;9.02;;;7.80;;
10945;SDS011;5525;42.648;23.368;2023-04-06T08:25:29;10.38;;;8.30;;
10945;SDS011;5525;42.648;23.368;2023-04-06T08:27:56;9.85;;;7.57;;
10945;SDS011;5525;42.648;23.368;2023-04-06T08:30:22;9.02;;;7.80;;
10945;SDS011;5525;42.648;23.368;2023-04-06T08:32:51;8.32;;;7.47;;
10945;SDS011;5525;42.648;23.368;2023-04-06T08:35:17;10.27;;;8.02;;
10945;SDS011;5525;42.648;23.368;2023-04-06T08:37:44;8.73;;;7.18;;
10945;SDS011;5525;42.648;23.368;2023-04-06T08:40:11;7.78;;;6.97;;
10945;SDS011;5525;42.648;23.368;2023-04-06T08:42:40;15.07;;;7.93;;
10945;SDS011;5525;42.648;23.368;2023-04-06T08:45:15;10.00;;;6.40;;
10945;SDS011;5525;42.648;23.368;2023-04-06T08:47:42;7.18;;;6.47;;
10945;SDS011;5525;42.648;23.368;2023-04-06T08:50:11;6.85;;;6.20;;
10945;SDS011;5525;42.648;23.368;2023-04-06T08:52:38;8.27;;;6.43;;
10945;SDS011;5525;42.648;23.368;2023-04-06T08:55:06;9.35;;;6.50;;
10945;SDS011;5525;42.648;23.368;2023-04-06T08:57:34;7.72;;;6.65;;
10945;SDS011;5525;42.648;23.368;2023-04-06T09:00:02;6.30;;;5.38;;
10945;SDS011;5525;42.648;23.368;2023-04-06T09:02:30;7.70;;;5.47;;
10945;SDS011;5525;42.648;23.368;2023-04-06T09:04:57;7.13;;;6.03;;
10945;SDS011;5525;42.648;23.368;2023-04-06T09:07:26;6.45;;;5.85;;
10945;SDS011;5525;42.648;23.368;2023-04-06T09:09:54;7.25;;;6.45;;
10945;SDS011;5525;42.648;23.368;2023-04-06T09:12:24;8.48;;;6.10;;
10945;SDS011;5525;42.648;23.368;2023-04-06T09:14:52;8.38;;;7.47;;
10945;SDS011;5525;42.648;23.368;2023-04-06T09:17:21;10.57;;;6.88;;
10945;SDS011;5525;42.648;23.368;2023-04-06T09:19:48;7.15;;;6.43;;
10945;SDS011;5525;42.648;23.368;2023-04-06T09:22:15;7.88;;;7.00;;
10945;SDS011;5525;42.648;23.368;2023-04-06T09:24:43;8.43;;;7.60;;
10945;SDS011;5525;42.648;23.368;2023-04-06T09:27:11;8.82;;;6.85;;
10945;SDS011;5525;42.648;23.368;2023-04-06T09:29:38;8.20;;;7.40;;
10945;SDS011;5525;42.648;23.368;2023-04-06T09:32:06;8.35;;;7.43;;
10945;SDS011;5525;42.648;23.368;2023-04-06T09:34:36;8.48;;;6.60;;
10945;SDS011;5525;42.648;23.368;2023-04-06T09:37:13;7.88;;;6.70;;
10945;SDS011;5525;42.648;23.368;2023-04-06T09:39:40;8.30;;;6.70;;
10945;SDS011;5525;42.648;23.368;2023-04-06T09:42:08;8.55;;;7.18;;
10945;SDS011;5525;42.648;23.368;2023-04-06T09:44:35;8.60;;;7.35;;
10945;SDS011;5525;42.648;23.368;2023-04-06T09:47:02;10.32;;;6.63;;
10945;SDS011;5525;42.648;23.368;2023-04-06T09:49:33;6.97;;;6.22;;
10945;SDS011;5525;42.648;23.368;2023-04-06T09:52:01;9.25;;;6.60;;
10945;SDS011;5525;42.648;23.368;2023-04-06T09:54:30;7.80;;;7.03;;
10945;SDS011;5525;42.648;23.368;2023-04-06T09:56:58;9.02;;;6.53;;
10945;SDS011;5525;42.648;23.368;2023-04-06T09:59:37;7.18;;;6.47;;
10945;SDS011;5525;42.648;23.368;2023-04-06T10:02:12;7.55;;;6.25;;
10945;SDS011;5525;42.648;23.368;2023-04-06T10:04:46;6.97;;;5.88;;
10945;SDS011;5525;42.648;23.368;2023-04-06T10:07:19;7.43;;;6.72;;
10945;SDS011;5525;42.648;23.368;2023-04-06T10:09:47;9.20;;;7.25;;
10945;SDS011;5525;42.648;23.368;2023-04-06T10:12:15;6.75;;;6.05;;
10945;SDS011;5525;42.648;23.368;2023-04-06T10:14:44;8.02;;;6.60;;
10945;SDS011;5525;42.648;23.368;2023-04-06T10:17:11;7.97;;;7.00;;
10945;SDS011;5525;42.648;23.368;2023-04-06T10:19:40;7.70;;;6.22;;
10945;SDS011;5525;42.648;23.368;2023-04-06T10:22:14;6.95;;;6.25;;
10945;SDS011;5525;42.648;23.368;2023-04-06T10:24:48;8.07;;;7.22;;
10945;SDS011;5525;42.648;23.368;2023-04-06T10:27:15;8.85;;;6.28;;
10945;SDS011;5525;42.648;23.368;2023-04-06T10:29:44;6.65;;;5.95;;
10945;SDS011;5525;42.648;23.368;2023-04-06T10:32:12;7.00;;;5.78;;
10945;SDS011;5525;42.648;23.368;2023-04-06T10:34:39;7.13;;;6.43;;
10945;SDS011;5525;42.648;23.368;2023-04-06T10:37:12;6.63;;;5.93;;
10945;SDS011;5525;42.648;23.368;2023-04-06T10:39:46;8.95;;;6.82;;
10945;SDS011;5525;42.648;23.368;2023-04-06T10:42:14;8.82;;;6.35;;
10945;SDS011;5525;42.648;23.368;2023-04-06T10:44:44;7.75;;;6.60;;
10945;SDS011;5525;42.648;23.368;2023-04-06T10:47:15;7.18;;;6.47;;
10945;SDS011;5525;42.648;23.368;2023-04-06T10:49:44;7.30;;;6.60;;
10945;SDS011;5525;42.648;23.368;2023-04-06T10:52:10;7.22;;;6.53;;
10945;SDS011;5525;42.648;23.368;2023-04-06T10:54:40;9.10;;;6.53;;
10945;SDS011;5525;42.648;23.368;2023-04-06T10:57:09;6.90;;;6.22;;
10945;SDS011;5525;42.648;23.368;2023-04-06T10:59:36;10.55;;;6.80;;
10945;SDS011;5525;42.648;23.368;2023-04-06T11:02:04;8.20;;;7.10;;
10945;SDS011;5525;42.648;23.368;2023-04-06T11:04:31;7.88;;;6.95;;
10945;SDS011;5525;42.648;23.368;2023-04-06T11:06:58;8.13;;;7.13;;
10945;SDS011;5525;42.648;23.368;2023-04-06T11:09:24;9.05;;;6.78;;
10945;SDS011;5525;42.648;23.368;2023-04-06T11:11:52;7.55;;;6.45;;
10945;SDS011;5525;42.648;23.368;2023-04-06T11:14:20;9.05;;;7.43;;
10945;SDS011;5525;42.648;23.368;2023-04-06T11:16:47;9.23;;;7.10;;
10945;SDS011;5525;42.648;23.368;2023-04-06T11:19:16;9.15;;;7.28;;
10945;SDS011;5525;42.648;23.368;2023-04-06T11:21:43;6.93;;;6.22;;
10945;SDS011;5525;42.648;23.368;2023-04-06T11:24:13;7.57;;;6.88;;
10945;SDS011;5525;42.648;23.368;2023-04-06T11:26:42;10.57;;;7.35;;
10945;SDS011;5525;42.648;23.368;2023-04-06T11:29:11;7.28;;;6.55;;
10945;SDS011;5525;42.648;23.368;2023-04-06T11:31:39;7.88;;;7.07;;
10945;SDS011;5525;42.648;23.368;2023-04-06T11:34:10;8.00;;;7.20;;
10945;SDS011;5525;42.648;23.368;2023-04-06T11:36:41;9.10;;;7.22;;
10945;SDS011;5525;42.648;23.368;2023-04-06T11:39:08;8.98;;;7.32;;
10945;SDS011;5525;42.648;23.368;2023-04-06T11:41:35;8.73;;;7.38;;
10945;SDS011;5525;42.648;23.368;2023-04-06T11:44:02;9.98;;;7.53;;
10945;SDS011;5525;42.648;23.368;2023-04-06T11:46:29;8.88;;;7.22;;
10945;SDS011;5525;42.648;23.368;2023-04-06T11:48:57;9.32;;;7.35;;
10945;SDS011;5525;42.648;23.368;2023-04-06T11:51:25;9.50;;;6.88;;
10945;SDS011;5525;42.648;23.368;2023-04-06T11:53:54;10.23;;;7.63;;
10945;SDS011;5525;42.648;23.368;2023-04-06T11:56:25;9.48;;;7.63;;
10945;SDS011;5525;42.648;23.368;2023-04-06T11:58:52;8.73;;;7.45;;
10945;SDS011;5525;42.648;23.368;2023-04-06T12:01:20;8.18;;;6.60;;
10945;SDS011;5525;42.648;23.368;2023-04-06T12:03:47;10.95;;;6.65;;
10945;SDS011;5525;42.648;23.368;2023-04-06T12:06:14;15.07;;;7.15;;
10945;SDS011;5525;42.648;23.368;2023-04-06T12:08:41;15.43;;;8.07;;
10945;SDS011;5525;42.648;23.368;2023-04-06T12:11:09;9.70;;;8.02;;
10945;SDS011;5525;42.648;23.368;2023-04-06T12:13:36;14.43;;;8.23;;
10945;SDS011;5525;42.648;23.368;2023-04-06T12:16:02;8.43;;;7.38;;
10945;SDS011;5525;42.648;23.368;2023-04-06T12:18:30;9.05;;;6.75;;
10945;SDS011;5525;42.648;23.368;2023-04-06T12:20:56;11.02;;;7.63;;
10945;SDS011;5525;42.648;23.368;2023-04-06T12:23:23;8.77;;;7.75;;
10945;SDS011;5525;42.648;23.368;2023-04-06T12:25:50;8.80;;;7.60;;
10945;SDS011;5525;42.648;23.368;2023-04-06T12:28:18;12.05;;;8.48;;
10945;SDS011;5525;42.648;23.368;2023-04-06T12:30:48;8.98;;;7.53;;
10945;SDS011;5525;42.648;23.368;2023-04-06T12:33:15;9.25;;;7.47;;
10945;SDS011;5525;42.648;23.368;2023-04-06T12:35:41;10.13;;;7.25;;
10945;SDS011;5525;42.648;23.368;2023-04-06T12:38:08;7.40;;;6.60;;
10945;SDS011;5525;42.648;23.368;2023-04-06T12:40:36;8.85;;;6.90;;
10945;SDS011;5525;42.648;23.368;2023-04-06T12:43:03;9.70;;;6.80;;
10945;SDS011;5525;42.648;23.368;2023-04-06T12:45:31;8.52;;;7.03;;
10945;SDS011;5525;42.648;23.368;2023-04-06T12:47:58;7.63;;;6.45;;
10945;SDS011;5525;42.648;23.368;2023-04-06T12:50:25;10.48;;;7.18;;
10945;SDS011;5525;42.648;23.368;2023-04-06T12:52:51;7.70;;;6.53;;
10945;SDS011;5525;42.648;23.368;2023-04-06T12:55:18;8.10;;;6.60;;
10945;SDS011;5525;42.648;23.368;2023-04-06T12:57:45;7.47;;;6.70;;
10945;SDS011;5525;42.648;23.368;2023-04-06T13:00:12;8.05;;;7.03;;
10945;SDS011;5525;42.648;23.368;2023-04-06T13:02:41;9.23;;;6.68;;
10945;SDS011;5525;42.648;23.368;2023-04-06T13:05:13;11.38;;;7.95;;
10945;SDS011;5525;42.648;23.368;2023-04-06T13:07:43;8.32;;;7.30;;
10945;SDS011;5525;42.648;23.368;2023-04-06T13:10:11;9.55;;;8.20;;
10945;SDS011;5525;42.648;23.368;2023-04-06T13:12:37;10.75;;;7.60;;
10945;SDS011;5525;42.648;23.368;2023-04-06T13:15:05;10.60;;;7.10;;
10945;SDS011;5525;42.648;23.368;2023-04-06T13:17:32;10.25;;;7.68;;
10945;SDS011;5525;42.648;23.368;2023-04-06T13:20:00;9.63;;;7.45;;
10945;SDS011;5525;42.648;23.368;2023-04-06T13:22:28;8.10;;;7.30;;
10945;SDS011;5525;42.648;23.368;2023-04-06T13:24:55;10.32;;;6.93;;
10945;SDS011;5525;42.648;23.368;2023-04-06T13:27:22;12.68;;;7.30;;
10945;SDS011;5525;42.648;23.368;2023-04-06T13:29:48;8.32;;;7.30;;
10945;SDS011;5525;42.648;23.368;2023-04-06T13:32:15;10.02;;;7.82;;
10945;SDS011;5525;42.648;23.368;2023-04-06T13:34:42;9.73;;;7.25;;
10945;SDS011;5525;42.648;23.368;2023-04-06T13:37:11;10.23;;;7.78;;
10945;SDS011;5525;42.648;23.368;2023-04-06T13:39:39;8.95;;;7.68;;
10945;SDS011;5525;42.648;23.368;2023-04-06T13:42:05;9.60;;;7.38;;
10945;SDS011;5525;42.648;23.368;2023-04-06T13:44:32;9.32;;;7.18;;
10945;SDS011;5525;42.648;23.368;2023-04-06T13:46:59;10.20;;;6.95;;
10945;SDS011;5525;42.648;23.368;2023-04-06T13:49:26;7.88;;;6.57;;
10945;SDS011;5525;42.648;23.368;2023-04-06T13:51:53;8.75;;;7.10;;
10945;SDS011;5525;42.648;23.368;2023-04-06T13:54:21;13.60;;;7.78;;
10945;SDS011;5525;42.648;23.368;2023-04-06T13:56:47;8.18;;;6.88;;
10945;SDS011;5525;42.648;23.368;2023-04-06T13:59:14;9.40;;;6.38;;
10945;SDS011;5525;42.648;23.368;2023-04-06T14:01:41;9.18;;;6.70;;
10945;SDS011;5525;42.648;23.368;2023-04-06T14:04:07;9.20;;;7.13;;
10945;SDS011;5525;42.648;23.368;2023-04-06T14:06:34;7.90;;;6.43;;
10945;SDS011;5525;42.648;23.368;2023-04-06T14:09:01;8.40;;;6.43;;
10945;SDS011;5525;42.648;23.368;2023-04-06T14:11:30;9.15;;;6.13;;
10945;SDS011;5525;42.648;23.368;2023-04-06T14:13:57;9.98;;;7.03;;
10945;SDS011;5525;42.648;23.368;2023-04-06T14:16:25;8.65;;;5.80;;
10945;SDS011;5525;42.648;23.368;2023-04-06T14:18:51;8.43;;;6.65;;
10945;SDS011;5525;42.648;23.368;2023-04-06T14:21:18;9.48;;;5.97;;
10945;SDS011;5525;42.648;23.368;2023-04-06T14:23:45;8.02;;;6.45;;
10945;SDS011;5525;42.648;23.368;2023-04-06T14:26:12;8.05;;;6.55;;
10945;SDS011;5525;42.648;23.368;2023-04-06T14:28:40;7.28;;;6.45;;
10945;SDS011;5525;42.648;23.368;2023-04-06T14:31:09;8.02;;;5.90;;
10945;SDS011;5525;42.648;23.368;2023-04-06T14:33:38;7.47;;;6.15;;
10945;SDS011;5525;42.648;23.368;2023-04-06T14:36:05;8.30;;;6.50;;
10945;SDS011;5525;42.648;23.368;2023-04-06T14:38:33;9.15;;;6.97;;
10945;SDS011;5525;42.648;23.368;2023-04-06T14:40:59;8.82;;;7.07;;
10945;SDS011;5525;42.648;23.368;2023-04-06T14:43:26;9.63;;;7.15;;
10945;SDS011;5525;42.648;23.368;2023-04-06T14:45:54;7.90;;;7.10;;